createdAt,value
2022-09-14T00:01:41.274Z,17.70
2022-09-14T00:04:34.101Z,17.70
2022-09-14T00:07:01.978Z,17.70
2022-09-14T00:09:30.168Z,17.70
2022-09-14T00:11:58.045Z,17.70
2022-09-14T00:14:25.914Z,17.70
2022-09-14T00:16:53.978Z,17.70
2022-09-14T00:19:27.045Z,17.70
2022-09-14T00:21:57.472Z,17.70
2022-09-14T00:24:28.182Z,17.70
2022-09-14T00:26:56.277Z,17.60
2022-09-14T00:29:25.165Z,17.60
2022-09-14T00:31:53.523Z,17.60
2022-09-14T00:34:21.716Z,17.60
2022-09-14T00:36:51.409Z,17.60
2022-09-14T00:39:25.211Z,17.50
2022-09-14T00:41:53.788Z,17.60
2022-09-14T00:44:21.787Z,17.60
2022-09-14T00:46:52.935Z,17.60
2022-09-14T00:49:32.999Z,17.60
2022-09-14T00:52:31.302Z,17.60
2022-09-14T00:55:02.240Z,17.50
2022-09-14T00:57:35.365Z,17.50
2022-09-14T01:00:03.541Z,17.60
2022-09-14T01:02:31.485Z,17.60
2022-09-14T01:04:59.443Z,17.60
2022-09-14T01:07:39.761Z,17.60
2022-09-14T01:10:19.939Z,17.60
2022-09-14T01:13:06.650Z,17.50
2022-09-14T01:15:53.228Z,17.50
2022-09-14T01:18:34.332Z,17.50
2022-09-14T01:21:43.134Z,17.50
2022-09-14T01:24:36.754Z,17.50
2022-09-14T01:27:32.985Z,17.50
2022-09-14T01:30:10.876Z,17.40
2022-09-14T01:32:50.638Z,17.40
2022-09-14T01:35:27.327Z,17.40
2022-09-14T01:38:16.014Z,17.40
2022-09-14T01:40:52.199Z,17.40
2022-09-14T01:44:04.307Z,17.40
2022-09-14T01:46:49.077Z,17.40
2022-09-14T01:49:19.911Z,17.40
2022-09-14T01:51:52.579Z,17.40
2022-09-14T01:54:29.242Z,17.40
2022-09-14T01:57:11.841Z,17.40
2022-09-14T01:59:45.865Z,17.40
2022-09-14T02:02:20.245Z,17.40
2022-09-14T02:05:08.067Z,17.40
2022-09-14T02:07:37.409Z,17.40
2022-09-14T02:10:10.262Z,17.40
2022-09-14T02:12:38.700Z,17.30
2022-09-14T02:15:08.207Z,17.30
2022-09-14T02:17:36.202Z,17.30
2022-09-14T02:20:08.162Z,17.30
2022-09-14T02:22:36.784Z,17.30
2022-09-14T02:25:05.421Z,17.30
2022-09-14T02:27:33.355Z,17.30
2022-09-14T02:30:01.311Z,17.40
2022-09-14T02:32:41.973Z,17.40
2022-09-14T02:35:39.081Z,17.40
2022-09-14T02:38:21.283Z,17.30
2022-09-14T02:41:26.653Z,17.30
2022-09-14T02:44:08.998Z,17.30
2022-09-14T02:47:02.579Z,17.40
2022-09-14T02:49:55.449Z,17.30
2022-09-14T02:52:52.448Z,17.30
2022-09-14T02:55:24.059Z,17.30
2022-09-14T02:58:00.676Z,17.30
2022-09-14T03:00:29.842Z,17.30
2022-09-14T03:02:57.974Z,17.20
2022-09-14T03:05:26.137Z,17.20
2022-09-14T03:07:54.029Z,17.20
2022-09-14T03:10:21.960Z,17.20
2022-09-14T03:12:49.823Z,17.20
2022-09-14T03:15:18.216Z,17.20
2022-09-14T03:17:50.387Z,17.20
2022-09-14T03:20:30.791Z,17.10
2022-09-14T03:23:00.146Z,17.00
2022-09-14T03:25:29.128Z,17.00
2022-09-14T03:27:59.964Z,16.90
2022-09-14T03:30:28.851Z,17.00
2022-09-14T03:32:56.755Z,16.90
2022-09-14T03:35:24.663Z,16.90
2022-09-14T03:37:52.926Z,16.90
2022-09-14T03:40:22.117Z,17.00
2022-09-14T03:42:51.712Z,17.00
2022-09-14T03:45:21.684Z,17.10
2022-09-14T03:47:50.628Z,17.10
2022-09-14T03:50:21.056Z,17.20
2022-09-14T03:52:49.544Z,17.20
2022-09-14T03:55:17.491Z,17.20
2022-09-14T03:57:45.380Z,17.20
2022-09-14T04:00:13.424Z,17.20
2022-09-14T04:02:41.893Z,17.20
2022-09-14T04:05:10.166Z,17.20
2022-09-14T04:07:38.029Z,17.20
2022-09-14T04:10:07.255Z,17.10
2022-09-14T04:12:39.462Z,17.00
2022-09-14T04:15:08.187Z,16.90
2022-09-14T04:17:36.558Z,16.80
2022-09-14T04:20:05.126Z,16.80
2022-09-14T04:22:32.984Z,16.80
2022-09-14T04:27:33.711Z,16.90
2022-09-14T04:30:01.599Z,17.00
2022-09-14T04:32:34.049Z,17.00
2022-09-14T04:35:02.486Z,17.10
2022-09-14T04:37:33.128Z,17.10
2022-09-14T04:40:05.139Z,17.10
2022-09-14T04:42:36.241Z,17.10
2022-09-14T04:45:05.511Z,17.10
2022-09-14T04:47:33.369Z,17.10
2022-09-14T04:50:01.276Z,17.00
2022-09-14T04:52:29.195Z,17.00
2022-09-14T04:54:57.138Z,16.90
2022-09-14T04:57:25.142Z,17.00
2022-09-14T04:59:52.983Z,17.00
2022-09-14T05:02:20.997Z,17.10
2022-09-14T05:04:48.921Z,17.10
2022-09-14T05:07:17.025Z,17.10
2022-09-14T05:09:44.930Z,17.10
2022-09-14T05:12:12.811Z,17.10
2022-09-14T05:14:40.693Z,17.10
2022-09-14T05:17:09.048Z,17.10
2022-09-14T05:19:36.941Z,17.10
2022-09-14T05:22:04.922Z,17.10
2022-09-14T05:24:32.871Z,17.00
2022-09-14T05:27:02.331Z,17.00
2022-09-14T05:29:30.982Z,17.10
2022-09-14T05:31:59.174Z,17.10
2022-09-14T05:34:27.260Z,17.10
2022-09-14T05:36:55.125Z,17.10
2022-09-14T05:39:23.573Z,17.10
2022-09-14T05:41:52.027Z,17.10
2022-09-14T05:44:20.086Z,17.10
2022-09-14T05:46:48.468Z,17.10
2022-09-14T05:49:16.367Z,17.20
2022-09-14T05:51:44.202Z,17.20
2022-09-14T05:54:13.219Z,17.20
2022-09-14T05:56:41.173Z,17.30
2022-09-14T05:59:12.308Z,17.20
2022-09-14T06:01:40.421Z,17.30
2022-09-14T06:04:12.259Z,17.30
2022-09-14T06:06:40.261Z,17.30
2022-09-14T06:09:08.242Z,17.20
2022-09-14T06:11:40.940Z,17.20
2022-09-14T06:14:09.152Z,17.10
2022-09-14T06:16:37.101Z,17.10
2022-09-14T06:19:05.991Z,17.10
2022-09-14T06:21:36.062Z,17.10
2022-09-14T06:24:10.304Z,17.00
2022-09-14T06:26:38.247Z,17.00
2022-09-14T06:29:08.065Z,17.00
2022-09-14T06:31:35.990Z,17.10
2022-09-14T06:34:05.016Z,17.10
2022-09-14T06:36:32.952Z,17.10
2022-09-14T06:39:01.427Z,17.10
2022-09-14T06:41:34.043Z,17.10
2022-09-14T06:44:02.840Z,17.10
2022-09-14T06:46:33.482Z,17.10
2022-09-14T06:49:10.807Z,17.20
2022-09-14T06:51:45.870Z,17.20
2022-09-14T06:54:18.968Z,17.20
2022-09-14T06:56:47.757Z,17.20
2022-09-14T06:59:17.290Z,17.20
2022-09-14T07:01:46.764Z,17.20
2022-09-14T07:04:15.450Z,17.20
2022-09-14T07:06:48.801Z,17.20
2022-09-14T07:09:18.123Z,17.20
2022-09-14T07:11:47.222Z,17.20
2022-09-14T07:14:15.083Z,17.20
2022-09-14T07:16:42.977Z,17.10
2022-09-14T07:19:16.823Z,17.10
2022-09-14T07:21:49.226Z,17.20
2022-09-14T07:24:17.299Z,17.30
2022-09-14T07:26:45.195Z,17.40
2022-09-14T07:29:15.803Z,17.40
2022-09-14T07:31:57.920Z,17.40
2022-09-14T07:34:26.533Z,17.40
2022-09-14T07:36:54.438Z,17.40
2022-09-14T07:39:22.307Z,17.40
2022-09-14T07:41:50.541Z,17.40
2022-09-14T07:44:19.142Z,17.40
2022-09-14T07:46:47.929Z,17.40
2022-09-14T07:49:16.992Z,17.40
2022-09-14T07:51:45.211Z,17.40
2022-09-14T07:54:15.053Z,17.30
2022-09-14T07:56:44.546Z,17.40
2022-09-14T08:02:02.420Z,17.40
2022-09-14T08:04:30.388Z,17.40
2022-09-14T08:06:59.070Z,17.40
2022-09-14T08:09:27.056Z,17.40
2022-09-14T08:11:56.453Z,17.50
2022-09-14T08:14:27.670Z,17.50
2022-09-14T08:16:55.630Z,17.60
2022-09-14T08:19:23.852Z,17.60
2022-09-14T08:21:52.258Z,17.70
2022-09-14T08:24:22.109Z,17.70
2022-09-14T08:26:50.592Z,17.80
2022-09-14T08:29:20.283Z,17.90
2022-09-14T08:31:49.498Z,17.90
2022-09-14T08:34:18.640Z,17.90
2022-09-14T08:36:48.269Z,17.90
2022-09-14T08:39:17.938Z,18.00
2022-09-14T08:41:52.309Z,18.00
2022-09-14T08:44:42.150Z,18.00
2022-09-14T08:47:29.989Z,18.00
2022-09-14T08:50:29.336Z,18.10
2022-09-14T08:52:57.293Z,18.10
2022-09-14T08:55:46.870Z,18.10
2022-09-14T08:58:35.069Z,18.10
2022-09-14T09:01:30.852Z,18.10
2022-09-14T09:04:18.497Z,18.20
2022-09-14T09:07:14.203Z,18.30
2022-09-14T09:09:48.515Z,18.20
2022-09-14T09:12:40.726Z,18.10
2022-09-14T09:15:26.339Z,18.20
2022-09-14T09:18:00.727Z,18.30
2022-09-14T09:20:33.862Z,18.40
2022-09-14T09:23:16.890Z,18.40
2022-09-14T09:26:18.644Z,18.60
2022-09-14T09:28:54.027Z,18.60
2022-09-14T09:31:45.422Z,18.50
2022-09-14T09:34:37.139Z,18.50
2022-09-14T09:37:24.997Z,18.60
2022-09-14T09:39:53.206Z,18.70
2022-09-14T09:42:29.339Z,18.70
2022-09-14T09:45:01.845Z,18.70
2022-09-14T09:47:40.552Z,18.70
2022-09-14T09:50:14.923Z,18.80
2022-09-14T09:52:55.236Z,18.80
2022-09-14T09:55:27.183Z,18.80
2022-09-14T09:57:55.796Z,18.70
2022-09-14T10:00:31.004Z,18.80
2022-09-14T10:02:59.137Z,18.80
2022-09-14T10:05:33.597Z,18.80
2022-09-14T10:08:06.940Z,18.80
2022-09-14T10:10:37.808Z,18.80
2022-09-14T10:13:07.269Z,18.90
2022-09-14T10:15:37.808Z,18.90
2022-09-14T10:18:21.587Z,18.90
2022-09-14T10:20:55.420Z,19.00
2022-09-14T10:23:26.827Z,19.10
2022-09-14T10:26:15.027Z,19.20
2022-09-14T10:28:50.840Z,19.30
2022-09-14T10:31:21.803Z,19.50
2022-09-14T10:33:57.040Z,19.80
2022-09-14T10:36:36.982Z,20.20
2022-09-14T10:39:13.977Z,20.70
2022-09-14T10:41:47.962Z,21.10
2022-09-14T10:44:42.872Z,21.20
2022-09-14T10:47:32.700Z,21.20
2022-09-14T10:50:20.650Z,21.10
2022-09-14T10:53:20.906Z,21.00
2022-09-14T10:56:05.034Z,21.00
2022-09-14T10:59:05.063Z,21.00
2022-09-14T11:02:05.498Z,21.00
2022-09-14T11:04:54.799Z,21.10
2022-09-14T11:07:43.017Z,21.10
2022-09-14T11:10:24.248Z,21.10
2022-09-14T11:13:03.835Z,21.10
2022-09-14T11:15:59.842Z,21.00
2022-09-14T11:18:34.011Z,21.00
2022-09-14T11:21:16.923Z,21.00
2022-09-14T11:24:03.328Z,21.00
2022-09-14T11:26:43.254Z,20.90
2022-09-14T11:29:24.878Z,20.80
2022-09-14T11:32:16.989Z,20.80
2022-09-14T11:34:49.232Z,20.80
2022-09-14T11:37:20.559Z,20.80
2022-09-14T11:39:56.281Z,20.90
2022-09-14T11:42:32.218Z,21.10
2022-09-14T11:45:25.551Z,21.10
2022-09-14T11:48:02.444Z,21.10
2022-09-14T11:50:32.867Z,21.10
2022-09-14T11:53:13.532Z,21.20
2022-09-14T11:55:49.877Z,21.40
2022-09-14T11:58:24.580Z,21.60
2022-09-14T12:01:06.462Z,21.80
2022-09-14T12:04:08.931Z,21.80
2022-09-14T12:06:36.846Z,21.80
2022-09-14T12:09:14.254Z,21.90
2022-09-14T12:11:44.457Z,22.00
2022-09-14T12:14:28.487Z,22.00
2022-09-14T12:20:32.402Z,21.80
2022-09-14T12:23:07.784Z,21.90
2022-09-14T12:25:40.515Z,22.00
2022-09-14T12:28:29.431Z,21.90
2022-09-14T12:30:57.409Z,22.00
2022-09-14T12:33:34.482Z,22.00
2022-09-14T12:36:12.035Z,21.90
2022-09-14T12:38:44.248Z,21.90
2022-09-14T12:41:12.187Z,22.10
2022-09-14T12:43:43.278Z,22.40
2022-09-14T12:46:11.266Z,22.70
2022-09-14T12:49:04.516Z,23.10
2022-09-14T12:51:43.301Z,23.30
2022-09-14T12:54:29.211Z,23.70
2022-09-14T12:57:20.878Z,23.90
2022-09-14T13:00:03.520Z,24.40
2022-09-14T13:02:43.372Z,24.30
2022-09-14T13:05:21.617Z,24.10
2022-09-14T13:07:49.553Z,23.90
2022-09-14T13:10:29.772Z,23.70
2022-09-14T13:12:58.151Z,23.50
2022-09-14T13:15:35.628Z,23.40
2022-09-14T13:18:20.806Z,23.50
2022-09-14T13:20:57.755Z,23.50
2022-09-14T13:23:46.181Z,23.40
2022-09-14T13:26:24.085Z,23.30
2022-09-14T13:28:54.930Z,23.30
2022-09-14T13:31:45.319Z,23.20
2022-09-14T13:34:24.262Z,23.20
2022-09-14T13:36:53.134Z,23.20
2022-09-14T13:39:30.579Z,22.90
2022-09-14T13:42:00.007Z,22.90
2022-09-14T13:44:34.711Z,22.80
2022-09-14T13:47:11.199Z,22.80
2022-09-14T13:49:40.910Z,22.80
2022-09-14T13:52:31.010Z,22.80
2022-09-14T13:55:43.921Z,22.90
2022-09-14T13:58:23.802Z,22.80
2022-09-14T14:00:56.565Z,22.70
2022-09-14T14:03:50.709Z,22.70
2022-09-14T14:06:32.970Z,22.60
2022-09-14T14:09:11.033Z,22.50
2022-09-14T14:11:45.043Z,22.50
2022-09-14T14:14:25.574Z,22.40
2022-09-14T14:17:26.061Z,22.30
2022-09-14T14:19:56.252Z,22.10
2022-09-14T14:22:34.834Z,22.00
2022-09-14T14:25:20.064Z,21.90
2022-09-14T14:27:49.299Z,21.70
2022-09-14T14:30:20.535Z,21.50
2022-09-14T14:32:59.683Z,21.20
2022-09-14T14:35:32.764Z,21.10
2022-09-14T14:38:00.738Z,21.00
2022-09-14T14:40:29.095Z,20.80
2022-09-14T14:42:59.412Z,20.70
2022-09-14T14:45:28.594Z,20.60
2022-09-14T14:47:57.180Z,20.50
2022-09-14T14:50:30.665Z,20.40
2022-09-14T14:52:58.608Z,20.30
2022-09-14T14:55:28.515Z,20.30
2022-09-14T14:58:01.634Z,20.30
2022-09-14T15:00:33.288Z,20.20
2022-09-14T15:03:01.715Z,20.10
2022-09-14T15:05:29.923Z,20.00
2022-09-14T15:07:58.422Z,20.00
2022-09-14T15:10:28.091Z,19.90
2022-09-14T15:12:56.085Z,19.90
2022-09-14T15:15:27.348Z,19.80
2022-09-14T15:17:55.459Z,19.80
2022-09-14T15:20:24.128Z,19.70
2022-09-14T15:22:52.612Z,19.70
2022-09-14T15:25:22.510Z,19.60
2022-09-14T15:27:50.606Z,19.50
2022-09-14T15:30:18.642Z,19.50
2022-09-14T15:32:46.511Z,19.50
2022-09-14T15:35:15.544Z,19.40
2022-09-14T15:37:43.765Z,19.40
2022-09-14T15:40:12.681Z,19.40
2022-09-14T15:42:42.837Z,19.20
2022-09-14T15:45:11.124Z,19.20
2022-09-14T15:47:44.424Z,19.10
2022-09-14T15:50:12.950Z,19.10
2022-09-14T15:52:41.334Z,19.10
2022-09-14T15:55:11.954Z,19.10
2022-09-14T15:57:40.805Z,19.00
2022-09-14T16:00:12.402Z,19.10
2022-09-14T16:02:44.039Z,19.10
2022-09-14T16:05:13.917Z,19.00
2022-09-14T16:07:41.791Z,19.00
2022-09-14T16:10:10.231Z,19.00
2022-09-14T16:12:38.067Z,19.00
2022-09-14T16:15:06.454Z,19.00
2022-09-14T16:17:34.314Z,19.00
2022-09-14T16:20:02.286Z,19.10
2022-09-14T16:22:30.199Z,19.00
2022-09-14T16:24:58.081Z,19.00
2022-09-14T16:27:26.015Z,18.90
2022-09-14T16:29:53.883Z,18.90
2022-09-14T16:32:23.199Z,19.00
2022-09-14T16:34:51.071Z,19.00
2022-09-14T16:37:18.996Z,19.00
2022-09-14T16:39:49.114Z,19.00
2022-09-14T16:42:17.143Z,19.00
2022-09-14T16:44:45.239Z,18.90
2022-09-14T16:47:13.159Z,18.90
2022-09-14T16:49:41.005Z,18.90
2022-09-14T16:52:08.895Z,18.90
2022-09-14T16:54:36.830Z,18.80
2022-09-14T16:57:04.851Z,18.80
2022-09-14T16:59:32.737Z,18.80
2022-09-14T17:02:00.882Z,18.80
2022-09-14T17:04:28.809Z,18.70
2022-09-14T17:06:57.838Z,18.70
2022-09-14T17:09:28.898Z,18.70
2022-09-14T17:11:58.611Z,18.70
2022-09-14T17:14:30.023Z,18.70
2022-09-14T17:16:58.500Z,18.70
2022-09-14T17:19:26.980Z,18.70
2022-09-14T17:21:59.308Z,18.70
2022-09-14T17:24:29.813Z,18.60
2022-09-14T17:26:57.719Z,18.60
2022-09-14T17:29:26.998Z,18.60
2022-09-14T17:31:56.511Z,18.60
2022-09-14T17:34:24.477Z,18.60
2022-09-14T17:36:52.678Z,18.50
2022-09-14T17:39:20.580Z,18.50
2022-09-14T17:41:48.412Z,18.40
2022-09-14T17:44:17.032Z,18.40
2022-09-14T17:46:51.952Z,18.50
2022-09-14T17:49:22.481Z,18.40
2022-09-14T17:51:51.407Z,18.40
2022-09-14T17:54:20.409Z,18.40
2022-09-14T17:56:48.370Z,18.40
2022-09-14T17:59:21.078Z,18.30
2022-09-14T18:01:50.462Z,18.40
2022-09-14T18:04:18.612Z,18.40
2022-09-14T18:06:48.550Z,18.40
2022-09-14T18:09:19.890Z,18.30
2022-09-14T18:11:47.988Z,18.30
2022-09-14T18:14:16.583Z,18.30
2022-09-14T18:16:45.592Z,18.30
2022-09-14T18:19:14.070Z,18.30
2022-09-14T18:21:42.370Z,18.30
2022-09-14T18:24:16.271Z,18.30
2022-09-14T18:26:45.804Z,18.30
2022-09-14T18:29:24.374Z,18.30
2022-09-14T18:31:56.774Z,18.30
2022-09-14T18:34:26.833Z,18.30
2022-09-14T18:36:54.743Z,18.30
2022-09-14T18:39:22.751Z,18.30
2022-09-14T18:41:57.520Z,18.30
2022-09-14T18:44:25.412Z,18.30
2022-09-14T18:46:53.567Z,18.30
2022-09-14T18:49:21.655Z,18.30
2022-09-14T18:51:49.582Z,18.20
2022-09-14T18:54:18.202Z,18.20
2022-09-14T18:56:46.102Z,18.20
2022-09-14T18:59:15.882Z,18.10
2022-09-14T19:01:44.501Z,18.10
2022-09-14T19:04:13.190Z,18.10
2022-09-14T19:06:42.046Z,18.10
2022-09-14T19:09:11.218Z,18.00
2022-09-14T19:11:39.158Z,17.90
2022-09-14T19:14:11.267Z,17.90
2022-09-14T19:16:40.825Z,17.80
2022-09-14T19:19:14.675Z,17.80
2022-09-14T19:21:42.946Z,17.80
2022-09-14T19:24:18.303Z,17.80
2022-09-14T19:26:49.133Z,17.80
2022-09-14T19:29:21.023Z,17.70
2022-09-14T19:31:53.521Z,17.70
2022-09-14T19:34:24.443Z,17.60
2022-09-14T19:36:54.991Z,17.60
2022-09-14T19:39:26.962Z,17.50
2022-09-14T19:41:55.149Z,17.50
2022-09-14T19:44:24.286Z,17.50
2022-09-14T19:46:52.554Z,17.50
2022-09-14T19:49:23.342Z,17.50
2022-09-14T19:51:54.063Z,17.40
2022-09-14T19:54:22.064Z,17.40
2022-09-14T19:56:49.986Z,17.20
2022-09-14T19:59:17.970Z,17.20
2022-09-14T20:01:46.383Z,17.20
2022-09-14T20:04:14.792Z,17.20
2022-09-14T20:06:45.433Z,17.10
2022-09-14T20:09:24.453Z,17.20
2022-09-14T20:11:53.842Z,17.20
2022-09-14T20:14:24.055Z,17.10
2022-09-14T20:16:58.069Z,17.10
2022-09-14T20:19:30.476Z,17.10
2022-09-14T20:21:58.555Z,17.00
2022-09-14T20:24:28.648Z,17.00
2022-09-14T20:27:01.971Z,17.00
2022-09-14T20:29:32.090Z,17.00
2022-09-14T20:32:00.228Z,17.00
2022-09-14T20:34:28.296Z,16.90
2022-09-14T20:36:56.582Z,16.90
2022-09-14T20:39:25.404Z,16.80
2022-09-14T20:41:54.077Z,16.80
2022-09-14T20:44:24.126Z,16.80
2022-09-14T20:46:52.514Z,16.80
2022-09-14T20:49:24.413Z,16.80
2022-09-14T20:51:56.052Z,16.80
2022-09-14T20:54:24.397Z,16.70
2022-09-14T20:56:52.345Z,16.70
2022-09-14T20:59:20.802Z,16.70
2022-09-14T21:01:50.622Z,16.60
2022-09-14T21:04:21.355Z,16.50
2022-09-14T21:06:53.584Z,16.40
2022-09-14T21:09:25.339Z,16.40
2022-09-14T21:11:54.237Z,16.50
2022-09-14T21:14:22.915Z,16.50
2022-09-14T21:16:56.105Z,16.50
2022-09-14T21:19:28.411Z,16.40
2022-09-14T21:21:56.805Z,16.50
2022-09-14T21:24:25.421Z,16.50
2022-09-14T21:26:53.660Z,16.50
2022-09-14T21:29:26.794Z,16.50
2022-09-14T21:32:03.598Z,16.50
2022-09-14T21:34:34.850Z,16.50
2022-09-14T21:37:03.150Z,16.50
2022-09-14T21:39:31.091Z,16.50
2022-09-14T21:42:00.351Z,16.50
2022-09-14T21:44:32.156Z,16.50
2022-09-14T21:47:00.426Z,16.40
2022-09-14T21:49:28.582Z,16.40
2022-09-14T21:51:56.519Z,16.40
2022-09-14T21:54:24.825Z,16.30
2022-09-14T21:56:53.907Z,16.30
2022-09-14T21:59:23.352Z,16.30
2022-09-14T22:01:51.673Z,16.20
2022-09-14T22:04:22.098Z,16.20
2022-09-14T22:06:52.326Z,16.20
2022-09-14T22:09:23.287Z,16.20
2022-09-14T22:11:51.274Z,16.20
2022-09-14T22:14:21.475Z,16.20
2022-09-14T22:16:50.288Z,16.20
2022-09-14T22:19:26.252Z,16.20
2022-09-14T22:21:54.817Z,16.20
2022-09-14T22:24:26.832Z,16.30
2022-09-14T22:26:58.092Z,16.30
2022-09-14T22:29:25.942Z,16.30
2022-09-14T22:31:55.847Z,16.30
2022-09-14T22:37:04.662Z,16.20
2022-09-14T22:39:32.683Z,16.20
2022-09-14T22:42:00.745Z,16.20
2022-09-14T22:44:28.590Z,16.20
2022-09-14T22:46:56.832Z,16.20
2022-09-14T22:49:24.763Z,16.20
2022-09-14T22:51:52.670Z,16.20
2022-09-14T22:54:20.613Z,16.20
2022-09-14T22:56:48.493Z,16.20
2022-09-14T22:59:16.419Z,16.30
2022-09-14T23:01:44.391Z,16.30
2022-09-14T23:04:14.015Z,16.30
2022-09-14T23:06:45.459Z,16.40
2022-09-14T23:09:19.390Z,16.40
2022-09-14T23:11:47.628Z,16.50
2022-09-14T23:14:16.905Z,16.50
2022-09-14T23:16:48.279Z,16.60
2022-09-14T23:19:19.323Z,16.60
2022-09-14T23:21:47.629Z,16.60
2022-09-14T23:24:15.942Z,16.60
2022-09-14T23:26:43.887Z,16.60
2022-09-14T23:29:16.574Z,16.60
2022-09-14T23:31:45.149Z,16.60
2022-09-14T23:34:13.021Z,16.70
2022-09-14T23:36:41.550Z,16.70
2022-09-14T23:39:09.734Z,16.70
2022-09-14T23:41:37.680Z,16.70
2022-09-14T23:44:05.785Z,16.80
2022-09-14T23:46:33.758Z,16.90
2022-09-14T23:49:01.802Z,16.90
2022-09-14T23:51:33.339Z,16.90
2022-09-14T23:54:04.350Z,16.90
2022-09-14T23:56:32.870Z,17.00
2022-09-14T23:59:00.706Z,17.00
